createdAt,value
2022-10-31T00:01:29.571Z,13.20
2022-10-31T00:03:56.932Z,13.20
2022-10-31T00:06:24.749Z,13.20
2022-10-31T00:09:01.569Z,13.30
2022-10-31T00:11:29.418Z,13.30
2022-10-31T00:14:01.026Z,13.30
2022-10-31T00:16:29.759Z,13.30
2022-10-31T00:19:02.577Z,13.30
2022-10-31T00:21:31.444Z,13.40
2022-10-31T00:24:00.240Z,13.40
2022-10-31T00:26:33.667Z,13.40
2022-10-31T00:29:01.623Z,13.40
2022-10-31T00:31:29.401Z,13.40
2022-10-31T00:33:58.053Z,13.30
2022-10-31T00:36:27.717Z,13.30
2022-10-31T00:38:55.187Z,13.30
2022-10-31T00:41:22.844Z,13.30
2022-10-31T00:43:50.195Z,13.30
2022-10-31T00:46:17.529Z,13.20
2022-10-31T00:48:45.331Z,13.20
2022-10-31T00:51:12.686Z,13.20
2022-10-31T00:53:42.131Z,13.20
2022-10-31T00:56:09.615Z,13.10
2022-10-31T00:58:37.087Z,13.10
2022-10-31T01:01:04.807Z,13.10
2022-10-31T01:03:34.101Z,13.10
2022-10-31T01:06:06.358Z,13.10
2022-10-31T01:08:35.322Z,13.10
2022-10-31T01:11:20.012Z,13.10
2022-10-31T01:13:48.733Z,13.20
2022-10-31T01:16:19.124Z,13.20
2022-10-31T01:18:47.422Z,13.20
2022-10-31T01:21:21.802Z,13.20
2022-10-31T01:23:51.454Z,13.10
2022-10-31T01:26:21.764Z,13.10
2022-10-31T01:28:52.354Z,13.10
2022-10-31T01:31:22.370Z,13.10
2022-10-31T01:33:49.960Z,13.10
2022-10-31T01:36:24.581Z,13.00
2022-10-31T01:38:54.311Z,13.00
2022-10-31T01:41:25.427Z,13.00
2022-10-31T01:43:56.086Z,13.00
2022-10-31T01:46:34.126Z,13.00
2022-10-31T01:49:10.289Z,12.90
2022-10-31T01:51:42.614Z,13.00
2022-10-31T01:54:13.926Z,13.00
2022-10-31T01:56:45.434Z,13.00
2022-10-31T01:59:17.876Z,13.00
2022-10-31T02:01:45.321Z,13.00
2022-10-31T02:04:13.287Z,13.00
2022-10-31T02:06:47.766Z,13.00
2022-10-31T02:09:16.037Z,13.00
2022-10-31T02:11:45.402Z,13.00
2022-10-31T02:14:14.299Z,13.00
2022-10-31T02:16:41.778Z,12.90
2022-10-31T02:19:13.345Z,12.90
2022-10-31T02:22:01.074Z,12.90
2022-10-31T02:24:47.092Z,12.80
2022-10-31T02:27:33.005Z,12.90
2022-10-31T02:30:17.700Z,12.80
2022-10-31T02:33:07.246Z,12.80
2022-10-31T02:35:47.172Z,12.80
2022-10-31T02:38:30.769Z,12.70
2022-10-31T02:41:35.950Z,12.70
2022-10-31T02:44:31.211Z,12.70
2022-10-31T02:47:22.269Z,12.70
2022-10-31T02:50:03.683Z,12.70
2022-10-31T02:52:34.134Z,12.70
2022-10-31T02:55:34.952Z,12.60
2022-10-31T02:58:10.678Z,12.60
2022-10-31T03:00:55.775Z,12.60
2022-10-31T03:03:38.573Z,12.50
2022-10-31T03:06:53.050Z,12.50
2022-10-31T03:09:41.666Z,12.50
2022-10-31T03:12:15.996Z,12.60
2022-10-31T03:14:54.510Z,12.60
2022-10-31T03:17:28.937Z,12.60
2022-10-31T03:19:59.251Z,12.60
2022-10-31T03:22:30.705Z,12.70
2022-10-31T03:25:02.818Z,12.70
2022-10-31T03:27:35.431Z,12.70
2022-10-31T03:30:05.931Z,12.70
2022-10-31T03:32:51.500Z,12.70
2022-10-31T03:35:21.621Z,12.70
2022-10-31T03:37:50.543Z,12.80
2022-10-31T03:40:21.772Z,12.80
2022-10-31T03:43:00.655Z,12.80
2022-10-31T03:45:31.669Z,12.80
2022-10-31T03:48:00.876Z,12.80
2022-10-31T03:50:38.078Z,12.80
2022-10-31T03:53:23.584Z,12.80
2022-10-31T03:56:02.235Z,12.80
2022-10-31T03:58:43.796Z,12.80
2022-10-31T04:01:14.941Z,12.70
2022-10-31T04:03:44.655Z,12.80
2022-10-31T04:06:17.346Z,12.80
2022-10-31T04:08:52.074Z,12.80
2022-10-31T04:11:24.009Z,12.80
2022-10-31T04:14:12.324Z,12.80
2022-10-31T04:16:43.876Z,12.80
2022-10-31T04:19:13.713Z,12.80
2022-10-31T04:21:44.311Z,12.90
2022-10-31T04:24:12.449Z,12.90
2022-10-31T04:26:43.029Z,12.90
2022-10-31T04:29:10.516Z,12.90
2022-10-31T04:31:39.245Z,12.90
2022-10-31T04:34:06.618Z,12.90
2022-10-31T04:36:34.774Z,13.00
2022-10-31T04:39:02.241Z,12.90
2022-10-31T04:41:41.624Z,12.90
2022-10-31T04:44:14.510Z,12.90
2022-10-31T04:46:42.008Z,12.90
2022-10-31T04:49:10.537Z,12.90
2022-10-31T04:51:37.980Z,12.80
2022-10-31T04:54:05.842Z,12.80
2022-10-31T04:57:10.871Z,12.80
2022-10-31T04:59:38.968Z,12.70
2022-10-31T05:02:06.485Z,12.70
2022-10-31T05:04:48.047Z,12.70
2022-10-31T05:07:16.519Z,12.70
2022-10-31T05:09:44.533Z,12.60
2022-10-31T05:12:14.688Z,12.60
2022-10-31T05:15:00.579Z,12.60
2022-10-31T05:17:46.629Z,12.60
2022-10-31T05:20:32.774Z,12.60
2022-10-31T05:23:13.922Z,12.60
2022-10-31T05:25:42.494Z,12.60
2022-10-31T05:28:09.913Z,12.50
2022-10-31T05:30:38.312Z,12.50
2022-10-31T05:33:09.636Z,12.50
2022-10-31T05:35:56.262Z,12.40
2022-10-31T05:38:26.198Z,12.40
2022-10-31T05:40:59.050Z,12.40
2022-10-31T05:43:26.777Z,12.40
2022-10-31T05:45:55.789Z,12.40
2022-10-31T05:48:41.427Z,12.40
2022-10-31T05:51:27.321Z,12.40
2022-10-31T05:53:54.608Z,12.40
2022-10-31T05:56:23.486Z,12.40
2022-10-31T05:58:50.913Z,12.40
2022-10-31T06:01:18.332Z,12.30
2022-10-31T06:03:46.896Z,12.30
2022-10-31T06:06:17.029Z,12.30
2022-10-31T06:08:44.386Z,12.30
2022-10-31T06:11:18.591Z,12.20
2022-10-31T06:14:04.439Z,12.20
2022-10-31T06:16:39.261Z,12.20
2022-10-31T06:19:32.405Z,12.10
2022-10-31T06:22:00.255Z,12.10
2022-10-31T06:24:27.525Z,12.10
2022-10-31T06:26:54.819Z,12.10
2022-10-31T06:29:22.694Z,12.10
2022-10-31T06:32:04.749Z,12.10
2022-10-31T06:34:36.993Z,12.10
2022-10-31T06:37:04.677Z,12.00
2022-10-31T06:39:32.148Z,12.00
2022-10-31T06:41:59.767Z,12.00
2022-10-31T06:44:28.422Z,12.00
2022-10-31T06:46:56.192Z,12.00
2022-10-31T06:49:42.040Z,11.90
2022-10-31T06:52:14.639Z,11.90
2022-10-31T06:54:42.127Z,11.80
2022-10-31T06:57:09.823Z,11.90
2022-10-31T06:59:39.042Z,11.80
2022-10-31T07:02:08.548Z,11.80
2022-10-31T07:04:36.206Z,11.80
2022-10-31T07:07:03.742Z,11.80
2022-10-31T07:09:31.560Z,11.80
2022-10-31T07:12:02.715Z,11.80
2022-10-31T07:14:31.823Z,11.80
2022-10-31T07:16:59.231Z,11.80
2022-10-31T07:19:33.386Z,11.80
2022-10-31T07:22:00.816Z,11.90
2022-10-31T07:27:19.051Z,11.80
2022-10-31T07:29:48.992Z,11.90
2022-10-31T07:32:17.622Z,11.90
2022-10-31T07:34:52.506Z,11.90
2022-10-31T07:37:23.074Z,12.00
2022-10-31T07:39:50.491Z,12.00
2022-10-31T07:42:18.049Z,12.00
2022-10-31T07:44:46.741Z,12.00
2022-10-31T07:47:43.419Z,12.10
2022-10-31T07:50:34.743Z,12.10
2022-10-31T07:53:20.512Z,12.10
2022-10-31T08:19:11.933Z,12.50
2022-10-31T08:24:09.592Z,13.00
2022-10-31T08:26:37.305Z,12.60
2022-10-31T08:29:08.560Z,12.60
2022-10-31T08:31:42.604Z,12.70
2022-10-31T08:34:28.677Z,12.80
2022-10-31T08:37:31.383Z,12.80
2022-10-31T08:39:58.754Z,12.90
2022-10-31T08:42:26.505Z,12.90
2022-10-31T08:44:53.860Z,12.90
2022-10-31T08:47:23.002Z,13.00
2022-10-31T08:49:50.419Z,13.10
2022-10-31T09:00:14.450Z,13.30
2022-10-31T09:03:12.542Z,13.30
2022-10-31T09:05:40.651Z,13.60
2022-10-31T09:10:46.321Z,13.80
2022-10-31T09:13:21.232Z,13.70
2022-10-31T09:23:32.961Z,13.90
2022-10-31T09:26:02.648Z,14.10
2022-10-31T09:33:48.452Z,14.20
2022-10-31T09:36:34.471Z,13.90
2022-10-31T09:41:59.583Z,14.00
2022-10-31T09:47:18.632Z,14.70
2022-10-31T09:50:15.945Z,14.50
2022-10-31T09:52:52.821Z,14.60
2022-10-31T09:55:35.950Z,14.90
2022-10-31T09:58:04.050Z,15.20
2022-10-31T10:03:09.007Z,15.60
2022-10-31T10:05:52.029Z,15.50
2022-10-31T10:08:32.782Z,15.70
2022-10-31T10:11:41.096Z,16.10
2022-10-31T10:14:40.684Z,16.30
2022-10-31T10:17:28.688Z,16.20
2022-10-31T10:20:31.417Z,15.90
2022-10-31T10:23:02.168Z,16.50
2022-10-31T10:25:34.372Z,16.60
2022-10-31T10:28:04.579Z,16.90
2022-10-31T10:30:41.150Z,16.30
2022-10-31T10:33:40.582Z,16.30
2022-10-31T10:36:17.304Z,16.30
2022-10-31T10:39:05.282Z,16.30
2022-10-31T10:41:34.942Z,16.30
2022-10-31T10:44:06.382Z,16.60
2022-10-31T10:47:02.124Z,16.40
2022-10-31T10:49:51.476Z,16.50
2022-10-31T10:52:50.211Z,16.50
2022-10-31T10:56:03.462Z,16.50
2022-10-31T10:58:30.946Z,16.60
2022-10-31T11:03:26.254Z,17.20
2022-10-31T11:05:59.972Z,17.40
2022-10-31T11:08:32.602Z,17.90
2022-10-31T11:11:26.420Z,18.40
2022-10-31T11:14:01.510Z,19.20
2022-10-31T11:16:30.799Z,19.00
2022-10-31T11:19:28.004Z,19.30
2022-10-31T11:22:06.189Z,19.30
2022-10-31T11:24:40.305Z,19.50
2022-10-31T11:27:22.614Z,19.70
2022-10-31T11:29:55.701Z,20.10
2022-10-31T11:32:29.291Z,20.30
2022-10-31T11:35:00.313Z,20.40
2022-10-31T11:37:31.989Z,20.90
2022-10-31T11:40:07.008Z,20.60
2022-10-31T11:42:41.280Z,20.30
2022-10-31T11:45:32.266Z,20.00
2022-10-31T11:48:02.144Z,19.60
2022-10-31T11:50:41.343Z,19.30
2022-10-31T11:53:21.291Z,19.10
2022-10-31T11:56:00.250Z,19.10
2022-10-31T11:58:27.826Z,19.20
2022-10-31T12:00:57.206Z,19.30
2022-10-31T12:03:24.457Z,19.20
2022-10-31T12:06:10.289Z,19.30
2022-10-31T12:08:39.417Z,19.50
2022-10-31T12:11:30.776Z,19.90
2022-10-31T12:14:03.838Z,20.40
2022-10-31T12:16:41.051Z,20.80
2022-10-31T12:19:30.277Z,20.90
2022-10-31T12:22:22.672Z,20.60
2022-10-31T12:25:14.447Z,20.20
2022-10-31T12:28:17.126Z,19.80
2022-10-31T12:31:09.170Z,19.60
2022-10-31T12:34:21.887Z,19.60
2022-10-31T12:37:19.977Z,19.90
2022-10-31T12:40:21.132Z,19.90
2022-10-31T12:42:55.413Z,20.10
2022-10-31T12:45:26.438Z,20.10
2022-10-31T12:48:05.010Z,20.30
2022-10-31T12:50:54.210Z,20.50
2022-10-31T12:53:27.556Z,20.80
2022-10-31T12:56:15.830Z,21.10
2022-10-31T12:59:04.569Z,21.30
2022-10-31T13:01:45.830Z,21.20
2022-10-31T13:04:19.611Z,21.10
2022-10-31T13:07:13.125Z,21.20
2022-10-31T13:09:48.928Z,21.30
2022-10-31T13:12:20.256Z,20.90
2022-10-31T13:14:55.756Z,20.90
2022-10-31T13:17:30.160Z,20.60
2022-10-31T13:20:16.966Z,20.20
2022-10-31T13:22:47.929Z,19.50
2022-10-31T13:25:23.860Z,19.50
2022-10-31T13:28:18.790Z,19.30
2022-10-31T13:30:46.187Z,19.10
2022-10-31T13:33:22.223Z,18.90
2022-10-31T13:35:53.932Z,18.70
2022-10-31T13:38:31.917Z,18.60
2022-10-31T13:41:22.492Z,18.70
2022-10-31T13:44:21.665Z,18.80
2022-10-31T13:46:48.933Z,18.80
2022-10-31T13:49:45.360Z,19.10
2022-10-31T13:52:12.660Z,19.50
2022-10-31T13:54:48.013Z,19.90
2022-10-31T13:57:34.739Z,19.90
2022-10-31T14:00:24.145Z,19.80
2022-10-31T14:02:58.152Z,19.60
2022-10-31T14:05:37.757Z,19.00
2022-10-31T14:08:07.510Z,18.90
2022-10-31T14:10:39.100Z,18.70
2022-10-31T14:13:42.238Z,18.50
2022-10-31T14:16:31.137Z,18.30
2022-10-31T14:19:20.988Z,18.10
2022-10-31T14:21:49.595Z,17.90
2022-10-31T14:24:16.871Z,17.80
2022-10-31T14:26:59.968Z,17.70
2022-10-31T14:29:32.423Z,17.50
2022-10-31T14:32:15.549Z,17.50
2022-10-31T14:34:51.841Z,17.40
2022-10-31T14:37:40.985Z,17.30
2022-10-31T14:40:36.826Z,17.10
2022-10-31T14:43:32.171Z,17.00
2022-10-31T14:46:02.474Z,16.90
2022-10-31T14:49:00.435Z,16.90
2022-10-31T14:51:43.002Z,16.80
2022-10-31T14:54:23.466Z,16.70
2022-10-31T14:56:56.297Z,16.70
2022-10-31T14:59:29.832Z,16.70
2022-10-31T15:02:10.785Z,16.70
2022-10-31T15:04:38.968Z,16.70
2022-10-31T15:07:27.276Z,16.80
2022-10-31T15:10:03.597Z,16.60
2022-10-31T15:12:35.288Z,16.50
2022-10-31T15:15:15.955Z,16.50
2022-10-31T15:17:47.323Z,16.50
2022-10-31T15:20:20.339Z,16.40
2022-10-31T15:22:48.157Z,16.40
2022-10-31T15:25:21.644Z,16.40
2022-10-31T15:27:53.276Z,16.40
2022-10-31T15:30:26.201Z,16.40
2022-10-31T15:33:01.302Z,16.30
2022-10-31T15:35:31.417Z,16.30
2022-10-31T15:38:00.966Z,16.30
2022-10-31T15:40:29.318Z,16.30
2022-10-31T15:43:04.916Z,16.30
2022-10-31T15:45:32.803Z,16.20
2022-10-31T15:48:19.188Z,16.20
2022-10-31T15:51:07.183Z,16.10
2022-10-31T15:53:49.357Z,16.10
2022-10-31T15:56:30.381Z,16.00
2022-10-31T15:58:59.681Z,16.00
2022-10-31T16:01:34.493Z,15.90
2022-10-31T16:04:14.114Z,15.90
2022-10-31T16:06:41.466Z,15.80
2022-10-31T16:09:25.329Z,15.80
2022-10-31T16:11:52.720Z,15.80
2022-10-31T16:14:25.721Z,15.80
2022-10-31T16:16:56.347Z,15.80
2022-10-31T16:19:25.249Z,15.80
2022-10-31T16:22:04.768Z,15.80
2022-10-31T16:24:34.527Z,15.70
2022-10-31T16:27:08.075Z,15.70
2022-10-31T16:29:35.481Z,15.70
2022-10-31T16:32:02.829Z,15.70
2022-10-31T16:34:30.165Z,15.70
2022-10-31T16:36:57.543Z,15.60
2022-10-31T16:39:25.196Z,15.60
2022-10-31T16:41:56.627Z,15.60
2022-10-31T16:44:29.603Z,15.50
2022-10-31T16:47:13.234Z,15.60
2022-10-31T16:49:40.957Z,15.60
2022-10-31T16:52:08.250Z,15.60
2022-10-31T16:54:35.778Z,15.50
2022-10-31T16:57:06.410Z,15.60
2022-10-31T16:59:34.850Z,15.50
2022-10-31T17:02:04.159Z,15.50
2022-10-31T17:07:01.709Z,15.50
2022-10-31T17:09:29.055Z,15.40
2022-10-31T17:11:56.690Z,15.40
2022-10-31T17:14:24.568Z,15.50
2022-10-31T17:16:51.963Z,15.40
2022-10-31T17:19:19.299Z,15.40
2022-10-31T17:24:15.848Z,15.40
2022-10-31T17:26:43.704Z,15.40
2022-10-31T17:29:11.183Z,15.40
2022-10-31T17:31:39.421Z,15.40
2022-10-31T17:34:07.425Z,15.30
2022-10-31T17:39:29.036Z,15.20
2022-10-31T17:41:59.222Z,15.20
2022-10-31T17:44:34.383Z,15.10
2022-10-31T17:47:58.429Z,15.10
2022-10-31T17:50:44.212Z,15.10
2022-10-31T17:53:11.874Z,15.00
2022-10-31T17:55:42.232Z,15.00
2022-10-31T17:58:12.977Z,14.90
2022-10-31T18:01:10.804Z,14.90
2022-10-31T18:03:39.497Z,14.90
2022-10-31T18:06:07.352Z,14.90
2022-10-31T18:08:37.036Z,14.80
2022-10-31T18:11:21.059Z,14.80
2022-10-31T18:13:54.061Z,14.90
2022-10-31T18:18:53.733Z,14.90
2022-10-31T18:21:21.424Z,14.80
2022-10-31T18:23:53.172Z,14.80
2022-10-31T18:26:20.462Z,14.80
2022-10-31T18:28:47.766Z,14.80
2022-10-31T18:31:15.436Z,14.80
2022-10-31T18:33:43.202Z,14.90
2022-10-31T18:36:12.078Z,14.80
2022-10-31T18:38:41.590Z,14.90
2022-10-31T18:41:09.449Z,14.90
2022-10-31T18:43:37.632Z,14.90
2022-10-31T18:46:08.866Z,14.90
2022-10-31T18:51:09.849Z,14.90
2022-10-31T18:53:37.445Z,14.90
2022-10-31T18:56:09.893Z,14.90
2022-10-31T18:58:37.452Z,15.00
2022-10-31T19:01:10.128Z,15.20
2022-10-31T19:03:38.700Z,15.00
2022-10-31T19:06:07.114Z,15.00
2022-10-31T19:08:35.182Z,15.00
2022-10-31T19:11:12.107Z,15.10
2022-10-31T19:13:40.432Z,15.00
2022-10-31T19:16:14.078Z,15.10
2022-10-31T19:18:43.287Z,15.10
2022-10-31T19:21:15.931Z,15.10
2022-10-31T19:23:44.371Z,15.20
2022-10-31T19:26:12.945Z,15.30
2022-10-31T19:28:41.774Z,15.10
2022-10-31T19:31:09.795Z,15.10
2022-10-31T19:33:37.879Z,15.10
2022-10-31T19:36:09.645Z,15.10
2022-10-31T19:38:39.164Z,15.20
2022-10-31T19:41:10.834Z,15.20
2022-10-31T19:43:40.136Z,15.20
2022-10-31T19:46:17.350Z,15.10
2022-10-31T19:48:55.805Z,15.20
2022-10-31T19:51:23.460Z,15.20
2022-10-31T19:53:52.173Z,15.20
2022-10-31T19:56:22.689Z,15.20
2022-10-31T19:58:50.184Z,15.20
2022-10-31T20:01:22.785Z,15.20
2022-10-31T20:03:51.055Z,15.20
2022-10-31T20:06:26.692Z,15.20
2022-10-31T20:08:57.696Z,15.30
2022-10-31T20:11:26.533Z,15.30
2022-10-31T20:13:58.325Z,15.30
2022-10-31T20:16:26.914Z,15.30
2022-10-31T20:18:54.876Z,16.60
2022-10-31T20:21:25.040Z,15.40
2022-10-31T20:24:01.125Z,15.40
2022-10-31T20:26:29.764Z,15.40
2022-10-31T20:28:58.783Z,15.50
2022-10-31T20:31:28.617Z,15.40
2022-10-31T20:33:56.517Z,15.50
2022-10-31T20:36:24.194Z,15.40
2022-10-31T20:38:52.570Z,15.50
2022-10-31T20:41:20.384Z,15.40
2022-10-31T20:43:48.318Z,15.50
2022-10-31T20:46:25.012Z,15.50
2022-10-31T20:48:53.817Z,15.50
2022-10-31T20:51:27.960Z,15.50
2022-10-31T20:53:57.067Z,15.50
2022-10-31T20:56:25.983Z,15.50
2022-10-31T20:58:56.074Z,15.50
2022-10-31T21:01:29.407Z,15.50
2022-10-31T21:03:58.740Z,15.50
2022-10-31T21:06:27.111Z,15.50
2022-10-31T21:08:55.451Z,15.50
2022-10-31T21:11:25.240Z,15.50
2022-10-31T21:13:53.286Z,15.50
2022-10-31T21:16:29.358Z,15.50
2022-10-31T21:18:56.940Z,15.50
2022-10-31T21:21:30.705Z,15.50
2022-10-31T21:24:05.217Z,15.50
2022-10-31T21:26:36.146Z,15.50
2022-10-31T21:29:05.696Z,15.50
2022-10-31T21:31:34.747Z,15.60
2022-10-31T21:34:02.097Z,15.50
2022-10-31T21:36:31.253Z,15.50
2022-10-31T21:38:58.765Z,15.50
2022-10-31T21:41:27.115Z,15.50
2022-10-31T21:43:55.278Z,15.40
2022-10-31T21:46:25.475Z,15.40
2022-10-31T21:48:53.540Z,15.40
2022-10-31T21:51:29.330Z,15.40
2022-10-31T21:54:16.356Z,15.30
2022-10-31T21:56:44.174Z,15.30
2022-10-31T21:59:11.725Z,15.30
2022-10-31T22:01:39.264Z,15.20
2022-10-31T22:04:06.916Z,15.20
2022-10-31T22:06:35.484Z,15.20
2022-10-31T22:09:05.288Z,15.20
2022-10-31T22:11:33.255Z,15.20
2022-10-31T22:14:01.331Z,15.30
2022-10-31T22:16:30.177Z,15.20
2022-10-31T22:18:59.568Z,15.20
2022-10-31T22:21:28.363Z,15.10
2022-10-31T22:24:03.241Z,15.10
2022-10-31T22:26:32.815Z,15.10
2022-10-31T22:29:03.418Z,15.10
2022-10-31T22:31:32.299Z,15.00
2022-10-31T22:34:00.360Z,15.00
2022-10-31T22:36:29.776Z,15.00
2022-10-31T22:38:58.198Z,15.00
2022-10-31T22:41:31.393Z,15.00
2022-10-31T22:43:59.306Z,15.00
2022-10-31T22:46:29.944Z,14.90
2022-10-31T22:49:00.171Z,14.90
2022-10-31T22:51:36.187Z,14.80
2022-10-31T22:54:04.375Z,14.80
2022-10-31T22:56:34.200Z,14.80
2022-10-31T22:59:02.565Z,14.80
2022-10-31T23:01:32.487Z,14.80
2022-10-31T23:04:01.934Z,14.80
2022-10-31T23:06:32.499Z,14.80
2022-10-31T23:09:02.046Z,14.80
2022-10-31T23:11:40.117Z,14.80
2022-10-31T23:14:15.800Z,14.90
2022-10-31T23:17:01.195Z,14.80
2022-10-31T23:19:30.467Z,14.70
2022-10-31T23:22:01.018Z,14.40
2022-10-31T23:24:37.583Z,14.00
2022-10-31T23:27:20.591Z,14.30
2022-10-31T23:29:51.885Z,14.10
2022-10-31T23:32:20.985Z,14.00
2022-10-31T23:34:50.508Z,13.90
2022-10-31T23:37:19.858Z,13.80
2022-10-31T23:39:47.706Z,13.70
2022-10-31T23:42:15.688Z,13.70
2022-10-31T23:44:43.239Z,13.70
2022-10-31T23:47:10.609Z,13.60
2022-10-31T23:49:38.032Z,13.60
2022-10-31T23:52:05.687Z,13.50
2022-10-31T23:54:33.491Z,14.10
2022-10-31T23:57:00.870Z,13.50
2022-10-31T23:59:31.799Z,13.50
